Time;durP1;ratioP1;P1;durP2;ratioP2;P2;SDS_P1;SDS_P2;PMS_P1;PMS_P2;Temp;Humidity;BMP_temperature;BMP_pressure;BME280_temperature;BME280_humidity;BME280_pressure;Samples;Min_cycle;Max_cycle;Signal;HPM_P1;HPM_P2
2023/01/18 00:00:30;;;;;;;;;;;;;;;9.91;47.87;98072.16;4987428;27;98126;-66
2023/01/18 00:02:57;;;;;;;;;;;;;;;9.92;47.53;98070.25;4967456;27;98147;-67
2023/01/18 00:05:23;;;;;;;;;;;;;;;9.91;47.61;98077.56;5002944;27;97929;-67
2023/01/18 00:07:51;;;;;;;;;;;;;;;9.89;47.42;98076.28;4974760;27;97916;-67
2023/01/18 00:10:17;;;;;;;;;;;;;;;9.89;47.88;98077.06;4970969;27;98447;-66
2023/01/18 00:12:42;;;;;;;;;;;;;;;9.89;47.64;98081.66;4987535;27;118726;-66
2023/01/18 00:15:09;;;;;;;;;;;;;;;9.88;47.21;98094.34;5002744;27;128374;-68
2023/01/18 00:17:46;;;;;;;;;;;;;;;9.89;48.08;98106.66;4987194;27;97942;-66
2023/01/18 00:20:15;;;;;;;;;;;;;;;9.88;47.62;98117.75;5005098;27;97935;-67
2023/01/18 00:22:41;;;;;;;;;;;;;;;9.89;47.83;98116.66;4990194;27;115086;-66
2023/01/18 00:25:09;;;;;;;;;;;;;;;9.88;46.93;98112.38;4967552;27;123239;-68
2023/01/18 00:27:36;;;;;;;;;;;;;;;9.88;47.56;98104.31;4983876;27;98119;-67
2023/01/18 00:30:03;;;;;;;;;;;;;;;9.88;47.07;98109.69;4982856;27;106659;-67
2023/01/18 00:32:29;;;;;;;;;;;;;;;9.88;47.43;98104.31;4984621;27;120662;-66
2023/01/18 00:34:55;;;;;;;;;;;;;;;9.88;46.99;98109.69;4984382;27;116757;-67
2023/01/18 00:37:23;;;;;;;;;;;;;;;9.88;48.06;98112.38;4986948;27;126533;-67
2023/01/18 00:39:49;;;;;;;;;;;;;;;9.87;47.35;98113.50;4987436;27;98433;-68
2023/01/18 00:45:00;;;;;;;;;;;;;;;9.87;47.36;98116.19;4991521;27;98062;-67
2023/01/18 00:47:26;;;;;;;;;;;;;;;9.87;47.13;98111.59;4965828;27;127296;-68
2023/01/18 00:49:52;;;;;;;;;;;;;;;9.87;47.86;98110.81;5000177;27;127704;-67
2023/01/18 00:52:17;;;;;;;;;;;;;;;9.87;47.81;98106.22;4965942;27;122566;-67
2023/01/18 00:54:43;;;;;;;;;;;;;;;9.87;47.82;98116.97;4987564;27;128574;-67
2023/01/18 00:57:09;;;;;;;;;;;;;;;9.87;47.22;98100.81;4986862;27;115458;-67
2023/01/18 00:59:35;;;;;;;;;;;;;;;9.87;47.33;98105.44;4968246;27;129705;-68
2023/01/18 01:02:01;;;;;;;;;;;;;;;9.87;47.33;98108.91;4969980;27;119771;-68
2023/01/18 01:07:11;;;;;;;;;;;;;;;9.88;47.25;98107.78;4990146;27;98187;-67
2023/01/18 01:09:37;;;;;;;;;;;;;;;9.88;47.59;98117.75;5001179;27;125742;-67
2023/01/18 01:26:07;;;;;;;;;;;;;;;9.92;47.39;98116.00;4988541;27;98013;-66
2023/01/18 01:28:37;;;;;;;;;;;;;;;9.90;47.54;98116.31;5004988;27;98364;-66
2023/01/18 01:31:03;;;;;;;;;;;;;;;9.92;47.73;98111.41;4983819;27;114029;-67
2023/01/18 01:33:30;;;;;;;;;;;;;;;9.91;47.76;98104.47;4980123;27;101565;-67
2023/01/18 01:35:57;;;;;;;;;;;;;;;9.92;47.46;98110.63;4968373;27;101206;-67
2023/01/18 01:38:23;;;;;;;;;;;;;;;9.92;47.57;98114.09;4985939;27;99653;-67
2023/01/18 01:41:00;;;;;;;;;;;;;;;9.93;47.34;98112.22;4982213;27;102797;-66
2023/01/18 01:43:43;;;;;;;;;;;;;;;9.91;47.08;98117.13;4972561;27;97975;-68
2023/01/18 01:46:15;;;;;;;;;;;;;;;9.93;47.39;98121.06;4986914;27;98394;-68
2023/01/18 01:48:41;;;;;;;;;;;;;;;9.93;47.29;98114.91;5019609;27;98461;-67
2023/01/18 01:51:07;;;;;;;;;;;;;;;9.93;47.28;98114.91;4982525;27;118865;-67
2023/01/18 01:53:33;;;;;;;;;;;;;;;9.94;47.72;98114.59;4983601;27;123546;-67
2023/01/18 01:55:59;;;;;;;;;;;;;;;9.94;47.41;98114.59;4964446;27;128465;-67
2023/01/18 01:58:26;;;;;;;;;;;;;;;9.94;47.65;98109.22;4962273;27;127332;-67
2023/01/18 02:00:53;;;;;;;;;;;;;;;9.95;47.76;98116.16;4970144;27;120208;-67
2023/01/18 02:03:19;;;;;;;;;;;;;;;9.95;47.29;98110.78;4983914;27;98304;-67
2023/01/18 02:05:50;;;;;;;;;;;;;;;9.96;47.42;98098.13;4986332;27;112147;-67
2023/01/18 02:08:21;;;;;;;;;;;;;;;9.96;47.06;98098.91;4966857;27;122128;-67
2023/01/18 02:10:47;;;;;;;;;;;;;;;9.96;47.33;98096.22;4973125;27;98051;-67
2023/01/18 02:13:13;;;;;;;;;;;;;;;9.97;47.78;98108.56;4984173;27;121058;-67
2023/01/18 02:16:03;;;;;;;;;;;;;;;9.98;47.31;98103.94;4983026;27;127189;-67
2023/01/18 02:18:51;;;;;;;;;;;;;;;9.98;47.45;98107.47;5002898;27;111191;-67
2023/01/18 02:21:27;;;;;;;;;;;;;;;9.99;47.06;98110.94;4989888;27;98372;-67
2023/01/18 02:24:20;;;;;;;;;;;;;;;9.98;47.78;98110.16;5003896;27;98193;-66
2023/01/18 02:27:00;;;;;;;;;;;;;;;9.99;47.77;98100.97;4984345;27;121696;-67
2023/01/18 02:29:26;;;;;;;;;;;;;;;9.99;47.62;98109.03;4970058;27;97948;-67
2023/01/18 02:32:07;;;;;;;;;;;;;;;9.99;47.31;98109.03;5019277;27;103599;-68
2023/01/18 02:34:39;;;;;;;;;;;;;;;10.00;47.29;98099.84;4986782;27;100132;-68
2023/01/18 02:37:23;;;;;;;;;;;;;;;10.08;47.15;98106.31;4968543;27;99879;-68
2023/01/18 02:40:14;;;;;;;;;;;;;;;10.16;47.83;98110.88;5000923;27;98242;-67
2023/01/18 02:48:18;;;;;;;;;;;;;;;10.33;47.33;98091.22;4999933;27;99627;-67
2023/01/18 02:50:44;;;;;;;;;;;;;;;10.38;47.44;98092.97;4966608;27;109685;-67
2023/01/18 02:53:12;;;;;;;;;;;;;;;10.41;47.46;98095.78;4984196;27;127119;-67
2023/01/18 02:55:40;;;;;;;;;;;;;;;10.42;47.61;98089.31;4985042;27;97825;-67
2023/01/18 02:58:14;;;;;;;;;;;;;;;10.44;47.66;98095.13;5000035;27;114890;-67
2023/01/18 03:00:42;;;;;;;;;;;;;;;10.48;47.59;98090.69;4980585;27;118066;-67
2023/01/18 03:03:09;;;;;;;;;;;;;;;10.49;47.42;98094.97;4998049;27;106076;-67
2023/01/18 03:05:35;;;;;;;;;;;;;;;10.51;47.82;98097.34;4986193;27;98008;-67
2023/01/18 03:08:26;;;;;;;;;;;;;;;10.51;47.37;98091.94;4966350;27;128801;-68
2023/01/18 03:11:19;;;;;;;;;;;;;;;10.51;47.44;98094.66;5002572;27;97912;-68
2023/01/18 03:14:19;;;;;;;;;;;;;;;10.53;47.38;98092.41;4963945;27;98151;-67
2023/01/18 03:16:57;;;;;;;;;;;;;;;10.53;47.29;98093.22;4985256;27;97918;-67
2023/01/18 03:20:08;;;;;;;;;;;;;;;10.53;47.67;98092.41;4966772;27;98201;-65
2023/01/18 03:25:28;;;;;;;;;;;;;;;10.53;47.20;98084.31;5000020;27;97880;-69
2023/01/18 03:36:12;;;;;;;;;;;;;;;10.53;47.36;98081.63;4985565;27;98076;-67
2023/01/18 03:38:39;;;;;;;;;;;;;;;10.53;47.68;98074.38;5003583;27;98250;-67
2023/01/18 03:41:05;;;;;;;;;;;;;;;10.53;47.68;98078.94;4986716;27;109547;-67
2023/01/18 03:43:35;;;;;;;;;;;;;;;10.52;47.25;98086.22;4966779;27;119766;-67
2023/01/18 03:46:01;;;;;;;;;;;;;;;10.52;47.24;98085.44;4986681;27;97941;-67
2023/01/18 03:48:27;;;;;;;;;;;;;;;10.51;47.40;98084.66;4966079;27;98161;-67
2023/01/18 03:51:12;;;;;;;;;;;;;;;10.51;47.23;98090.03;4967017;27;125595;-67
2023/01/18 03:54:05;;;;;;;;;;;;;;;10.51;47.34;98089.25;4987247;27;98239;-67
2023/01/18 03:56:48;;;;;;;;;;;;;;;10.50;47.78;98093.84;4940608;27;98217;-67
2023/01/18 03:59:14;;;;;;;;;;;;;;;10.49;47.32;98094.97;4999759;27;98089;-68
2023/01/18 04:01:43;;;;;;;;;;;;;;;10.49;47.36;98092.28;4962934;27;127792;-67
2023/01/18 04:04:09;;;;;;;;;;;;;;;10.49;47.31;98099.56;4967942;27;98331;-67
2023/01/18 04:06:35;;;;;;;;;;;;;;;10.49;47.48;98102.25;4987734;27;116207;-68
2023/01/18 04:09:01;;;;;;;;;;;;;;;10.48;47.11;98095.28;4970185;27;99152;-67
2023/01/18 04:11:27;;;;;;;;;;;;;;;10.48;47.58;98101.47;4985583;27;128394;-67
2023/01/18 04:13:52;;;;;;;;;;;;;;;10.48;47.42;98092.59;4982272;27;129053;-67
2023/01/18 04:16:18;;;;;;;;;;;;;;;10.47;47.65;98088.31;4986481;27;127909;-67
2023/01/18 04:18:44;;;;;;;;;;;;;;;10.47;47.77;98089.13;4988148;27;97856;-67
2023/01/18 04:21:10;;;;;;;;;;;;;;;10.46;47.58;98086.75;4973917;27;98166;-67
2023/01/18 04:23:36;;;;;;;;;;;;;;;10.45;47.76;98087.84;4987201;27;128690;-68
2023/01/18 04:26:02;;;;;;;;;;;;;;;10.45;47.12;98091.34;4964768;27;127699;-67
2023/01/18 04:28:28;;;;;;;;;;;;;;;10.46;47.36;98087.53;4986613;27;98177;-66
2023/01/18 04:30:55;;;;;;;;;;;;;;;10.45;47.15;98087.84;4985934;27;131049;-67
2023/01/18 04:33:21;;;;;;;;;;;;;;;10.47;47.35;98082.94;4985524;27;98196;-67
2023/01/18 04:35:47;;;;;;;;;;;;;;;10.46;47.73;98084.84;4988920;27;114536;-67
2023/01/18 04:38:13;;;;;;;;;;;;;;;10.46;47.42;98098.31;4986202;27;112565;-67
2023/01/18 04:40:39;;;;;;;;;;;;;;;10.46;47.38;98092.94;4983970;27;98290;-67
2023/01/18 04:43:05;;;;;;;;;;;;;;;10.46;47.33;98101.00;4986986;27;102110;-67
2023/01/18 04:45:31;;;;;;;;;;;;;;;10.47;47.82;98102.56;4984215;27;127659;-67
2023/01/18 04:47:57;;;;;;;;;;;;;;;10.47;47.52;98099.88;4968127;27;122546;-67
2023/01/18 04:50:23;;;;;;;;;;;;;;;10.47;47.60;98105.28;4980679;27;128572;-67
2023/01/18 04:52:49;;;;;;;;;;;;;;;10.48;47.16;98106.06;4983333;27;127189;-68
2023/01/18 04:55:15;;;;;;;;;;;;;;;10.49;47.56;98107.63;4985328;27;121890;-67
2023/01/18 04:57:42;;;;;;;;;;;;;;;10.48;47.73;98098.75;4967726;27;97998;-68
2023/01/18 05:00:09;;;;;;;;;;;;;;;10.48;47.10;98096.06;4986294;27;98443;-67
2023/01/18 05:02:35;;;;;;;;;;;;;;;10.49;47.28;98103.06;4986155;27;115463;-65
2023/01/18 05:05:03;;;;;;;;;;;;;;;10.48;47.32;98104.16;4966297;27;99067;-67
2023/01/18 05:07:32;;;;;;;;;;;;;;;10.50;47.61;98101.94;4970481;27;98083;-67
2023/01/18 05:09:59;;;;;;;;;;;;;;;10.52;47.42;98107.00;4969168;27;98255;-67
2023/01/18 05:12:25;;;;;;;;;;;;;;;10.52;47.36;98112.38;4983966;27;127697;-67
2023/01/18 05:14:51;;;;;;;;;;;;;;;10.52;47.18;98115.06;4985714;27;98055;-68
2023/01/18 05:17:17;;;;;;;;;;;;;;;10.53;47.08;98120.16;5000635;27;122057;-67
2023/01/18 05:19:43;;;;;;;;;;;;;;;10.52;47.48;98115.84;4983936;27;127357;-67
2023/01/18 05:22:09;;;;;;;;;;;;;;;10.54;47.33;98123.63;4966499;27;98129;-67
2023/01/18 05:24:35;;;;;;;;;;;;;;;10.54;47.44;98129.81;4974394;27;127507;-67
2023/01/18 05:27:01;;;;;;;;;;;;;;;10.54;47.12;98121.72;4969724;27;97964;-67
2023/01/18 05:29:27;;;;;;;;;;;;;;;10.56;47.34;98140.25;4967426;27;129396;-66
2023/01/18 05:31:53;;;;;;;;;;;;;;;10.56;47.58;98137.56;4984054;27;126113;-67
2023/01/18 05:34:18;;;;;;;;;;;;;;;10.55;47.66;98150.25;4972340;27;129622;-69
2023/01/18 05:36:45;;;;;;;;;;;;;;;10.57;47.80;98160.69;4984051;27;123355;-67
2023/01/18 05:39:12;;;;;;;;;;;;;;;10.57;47.61;98152.59;4984362;27;124556;-67
2023/01/18 05:41:38;;;;;;;;;;;;;;;10.56;47.57;98159.91;4967754;27;97902;-67
2023/01/18 05:44:04;;;;;;;;;;;;;;;10.59;47.64;98171.16;4984236;27;129244;-65
2023/01/18 05:46:30;;;;;;;;;;;;;;;10.59;47.66;98174.63;4969793;27;100052;-67
2023/01/18 05:48:57;;;;;;;;;;;;;;;10.59;47.29;98177.31;4998369;27;129264;-68
2023/01/18 05:51:23;;;;;;;;;;;;;;;10.61;47.40;98185.06;4966738;27;98114;-67
2023/01/18 05:53:49;;;;;;;;;;;;;;;10.61;47.45;98185.06;5003093;27;115347;-67
2023/01/18 05:56:15;;;;;;;;;;;;;;;10.61;47.57;98183.19;4968653;27;121014;-67
2023/01/18 05:58:40;;;;;;;;;;;;;;;10.61;47.58;98185.06;5002879;27;98159;-68
2023/01/18 06:01:07;;;;;;;;;;;;;;;10.60;47.32;98186.19;4986840;27;128077;-67
2023/01/18 06:03:33;;;;;;;;;;;;;;;10.61;47.70;98202.06;4968561;27;98148;-68
2023/01/18 06:06:00;;;;;;;;;;;;;;;10.60;47.15;98195.06;4963755;27;114529;-67
2023/01/18 06:08:26;;;;;;;;;;;;;;;10.61;47.23;98195.84;4968964;27;99570;-67
2023/01/18 06:10:53;;;;;;;;;;;;;;;10.61;47.42;98187.78;4980910;27;127995;-67
2023/01/18 06:13:19;;;;;;;;;;;;;;;10.62;47.54;98189.38;4999448;27;98058;-68
2023/01/18 06:15:46;;;;;;;;;;;;;;;10.61;47.22;98185.06;4987654;27;105925;-68
2023/01/18 06:18:11;;;;;;;;;;;;;;;10.61;47.61;98185.88;4981975;27;98083;-67
2023/01/18 06:20:37;;;;;;;;;;;;;;;10.62;47.58;98200.16;5004143;27;118681;-67
2023/01/18 06:23:03;;;;;;;;;;;;;;;10.61;47.57;98195.84;4969888;27;127956;-67
2023/01/18 06:25:29;;;;;;;;;;;;;;;10.62;47.56;98194.75;4985075;27;122579;-68
2023/01/18 06:27:55;;;;;;;;;;;;;;;10.61;47.47;98201.25;4985963;27;128127;-66
2023/01/18 06:30:21;;;;;;;;;;;;;;;10.61;47.49;98198.53;4969129;27;130167;-67
2023/01/18 06:32:48;;;;;;;;;;;;;;;10.61;47.62;98199.38;4983904;27;108851;-67
2023/01/18 06:35:14;;;;;;;;;;;;;;;10.60;47.08;98203.16;4989972;27;98245;-67
2023/01/18 06:37:40;;;;;;;;;;;;;;;10.61;47.07;98201.25;4970942;27;102416;-66
2023/01/18 06:40:08;;;;;;;;;;;;;;;10.61;47.58;98201.25;4989212;27;114918;-67
2023/01/18 06:42:34;;;;;;;;;;;;;;;10.61;47.49;98201.25;5004077;27;98167;-67
2023/01/18 06:45:00;;;;;;;;;;;;;;;10.59;47.52;98193.50;4985364;27;113922;-66
2023/01/18 06:47:25;;;;;;;;;;;;;;;10.59;47.24;98200.78;4968915;27;106032;-68
2023/01/18 06:49:51;;;;;;;;;;;;;;;10.59;47.29;98198.88;5003890;27;105659;-67
2023/01/18 06:52:17;;;;;;;;;;;;;;;10.59;47.70;98201.56;4985336;27;127197;-66
2023/01/18 06:54:43;;;;;;;;;;;;;;;10.57;47.37;98209.16;4970640;27;122090;-66
2023/01/18 06:57:10;;;;;;;;;;;;;;;10.56;47.48;98211.06;4966243;27;126857;-67
2023/01/18 06:59:36;;;;;;;;;;;;;;;10.55;47.20;98212.19;4967432;27;98907;-66
2023/01/18 07:02:03;;;;;;;;;;;;;;;10.54;47.05;98217.91;4969830;27;128402;-67
2023/01/18 07:04:31;;;;;;;;;;;;;;;10.52;47.73;98223.59;4980222;27;98597;-66
2023/01/18 07:06:57;;;;;;;;;;;;;;;10.52;47.84;98225.50;4985379;27;99581;-67
2023/01/18 07:09:23;;;;;;;;;;;;;;;10.51;47.14;98227.41;4969642;27;99651;-66
2023/01/18 07:11:49;;;;;;;;;;;;;;;10.51;47.54;98232.81;5000844;27;98870;-66
2023/01/18 07:14:15;;;;;;;;;;;;;;;10.51;47.55;98226.63;4984381;27;113717;-67
2023/01/18 07:16:41;;;;;;;;;;;;;;;10.49;47.18;98224.28;4982734;27;126540;-66
2023/01/18 07:19:07;;;;;;;;;;;;;;;10.49;47.15;98223.44;4998756;27;115988;-67
2023/01/18 07:21:33;;;;;;;;;;;;;;;10.48;47.42;98224.56;4981282;27;98154;-67
2023/01/18 07:23:59;;;;;;;;;;;;;;;10.48;47.20;98221.88;4967152;27;98196;-66
2023/01/18 07:26:25;;;;;;;;;;;;;;;10.47;47.41;98228.38;4984302;27;98454;-66
2023/01/18 07:28:53;;;;;;;;;;;;;;;10.47;47.61;98237.25;5000129;27;128121;-66
2023/01/18 07:31:19;;;;;;;;;;;;;;;10.47;47.76;98233.78;4982555;27;98097;-66
2023/01/18 07:33:45;;;;;;;;;;;;;;;10.45;47.68;98230.59;4987337;27;98194;-66
2023/01/18 07:36:11;;;;;;;;;;;;;;;10.44;47.43;98232.50;4966852;27;121054;-66
2023/01/18 07:38:37;;;;;;;;;;;;;;;10.43;47.22;98236.31;4985321;27;98331;-67
2023/01/18 07:41:08;;;;;;;;;;;;;;;10.43;47.75;98239.00;4968116;27;107085;-65
2023/01/18 07:43:36;;;;;;;;;;;;;;;10.43;47.64;98241.69;5002639;27;97894;-66
2023/01/18 07:46:02;;;;;;;;;;;;;;;10.43;47.39;98244.38;4989791;27;98160;-67
2023/01/18 07:48:29;;;;;;;;;;;;;;;10.43;47.59;98243.59;4988342;27;99386;-66
2023/01/18 07:50:59;;;;;;;;;;;;;;;10.41;47.29;98237.72;4970219;27;113748;-67
2023/01/18 07:53:26;;;;;;;;;;;;;;;10.43;47.64;98251.69;4998406;27;98509;-66
2023/01/18 07:55:52;;;;;;;;;;;;;;;10.42;47.62;98250.09;4965265;27;98050;-66
2023/01/18 07:58:18;;;;;;;;;;;;;;;10.41;47.13;98249.28;4978817;27;98448;-66
2023/01/18 08:00:44;;;;;;;;;;;;;;;10.40;47.43;98250.41;4997803;27;97920;-67
2023/01/18 08:03:13;;;;;;;;;;;;;;;10.40;47.26;98245.03;4995460;27;98030;-66
2023/01/18 08:05:41;;;;;;;;;;;;;;;10.39;47.64;98246.13;4994275;27;98285;-66
2023/01/18 08:08:12;;;;;;;;;;;;;;;10.40;47.63;98245.03;4979342;27;98287;-66
2023/01/18 08:10:39;;;;;;;;;;;;;;;10.41;47.13;98251.19;4962548;27;98107;-66
2023/01/18 08:13:05;;;;;;;;;;;;;;;10.40;47.43;98246.94;4979673;27;97843;-66
2023/01/18 08:15:31;;;;;;;;;;;;;;;10.39;47.44;98250.75;4983037;27;99553;-67
2023/01/18 08:18:01;;;;;;;;;;;;;;;10.40;47.59;98255.78;4978089;27;100182;-67
2023/01/18 08:20:27;;;;;;;;;;;;;;;10.40;47.33;98252.31;4963796;27;98943;-67
2023/01/18 08:22:56;;;;;;;;;;;;;;;10.39;47.11;98256.91;4980463;27;114187;-67
2023/01/18 08:25:28;;;;;;;;;;;;;;;10.39;47.15;98262.31;4995807;27;98525;-65
2023/01/18 08:27:56;;;;;;;;;;;;;;;10.40;47.74;98263.09;4966070;27;98200;-66
2023/01/18 08:30:26;;;;;;;;;;;;;;;10.39;47.44;98262.31;4966418;27;98213;-67
2023/01/18 08:32:56;;;;;;;;;;;;;;;10.38;47.33;98263.41;4967746;27;98156;-66
2023/01/18 08:35:25;;;;;;;;;;;;;;;10.39;47.67;98259.59;4980706;27;98031;-65
2023/01/18 08:37:51;;;;;;;;;;;;;;;10.38;47.73;98271.50;4978300;27;126967;-65
2023/01/18 08:40:18;;;;;;;;;;;;;;;10.37;47.19;98272.59;4980691;27;103135;-66
2023/01/18 08:42:45;;;;;;;;;;;;;;;10.39;47.24;98277.66;4965585;27;98106;-65
2023/01/18 08:45:12;;;;;;;;;;;;;;;10.39;47.40;98259.59;4982629;27;98338;-66
2023/01/18 08:47:38;;;;;;;;;;;;;;;10.40;47.72;98269.25;4976761;27;98333;-66
2023/01/18 08:50:04;;;;;;;;;;;;;;;10.41;47.40;98261.97;5000843;27;98129;-66
2023/01/18 08:52:30;;;;;;;;;;;;;;;10.41;47.78;98276.22;4975888;27;98838;-66
2023/01/18 08:54:56;;;;;;;;;;;;;;;10.43;47.64;98279.41;4994194;27;127565;-66
2023/01/18 08:57:22;;;;;;;;;;;;;;;10.43;47.12;98287.47;4978261;27;128426;-67
2023/01/18 08:59:48;;;;;;;;;;;;;;;10.43;47.44;98284.78;4979705;27;98341;-66
2023/01/18 09:02:15;;;;;;;;;;;;;;;10.44;47.67;98290.97;4980865;27;97801;-66
2023/01/18 09:04:42;;;;;;;;;;;;;;;10.44;47.44;98291.75;4962397;27;99650;-66
2023/01/18 09:07:08;;;;;;;;;;;;;;;10.44;47.50;98307.13;4977405;27;98435;-66
2023/01/18 09:09:34;;;;;;;;;;;;;;;10.45;47.34;98298.75;4979892;27;127555;-65
2023/01/18 09:12:00;;;;;;;;;;;;;;;10.46;47.09;98299.53;4980940;27;99136;-66
2023/01/18 09:14:26;;;;;;;;;;;;;;;10.45;47.10;98306.00;4994981;27;127196;-66
2023/01/18 09:16:52;;;;;;;;;;;;;;;10.44;47.08;98302.53;4978869;27;127305;-66
2023/01/18 09:19:18;;;;;;;;;;;;;;;10.46;47.76;98304.91;4962332;27;130673;-66
2023/01/18 09:21:45;;;;;;;;;;;;;;;10.46;47.75;98310.31;4980167;27;98106;-65
2023/01/18 09:24:11;;;;;;;;;;;;;;;10.45;47.34;98311.41;4997213;27;99493;-66
2023/01/18 09:26:37;;;;;;;;;;;;;;;10.46;47.73;98315.69;4966521;27;98225;-65
2023/01/18 09:29:03;;;;;;;;;;;;;;;10.47;47.18;98323.44;4979270;27;126561;-65
2023/01/18 09:31:29;;;;;;;;;;;;;;;10.46;47.49;98313.78;4979044;27;97921;-65
2023/01/18 09:33:56;;;;;;;;;;;;;;;10.48;47.08;98314.25;4991672;27;98445;-66
2023/01/18 09:36:25;;;;;;;;;;;;;;;10.49;47.50;98318.53;4959400;27;98229;-65
2023/01/18 09:38:51;;;;;;;;;;;;;;;10.49;47.11;98326.63;4982698;27;98054;-65
2023/01/18 09:41:29;;;;;;;;;;;;;;;10.49;47.57;98318.53;4963844;27;118704;-64
2023/01/18 09:43:58;;;;;;;;;;;;;;;10.51;47.37;98315.53;4996993;27;98642;-66
2023/01/18 09:46:24;;;;;;;;;;;;;;;10.51;47.56;98329.78;4980638;27;121870;-66
2023/01/18 09:49:00;;;;;;;;;;;;;;;10.51;47.25;98329.78;4977925;27;97901;-66
2023/01/18 09:51:50;;;;;;;;;;;;;;;10.51;47.61;98324.41;4997702;27;98116;-65
2023/01/18 09:54:38;;;;;;;;;;;;;;;10.53;47.56;98329.44;4992373;27;98483;-65
2023/01/18 09:57:26;;;;;;;;;;;;;;;10.53;47.67;98324.06;4993133;27;98207;-65
2023/01/18 09:59:55;;;;;;;;;;;;;;;10.54;47.29;98318.38;4995867;27;97949;-67
2023/01/18 10:02:23;;;;;;;;;;;;;;;10.55;47.53;98316.47;4961575;27;98240;-65
2023/01/18 10:04:55;;;;;;;;;;;;;;;10.55;47.28;98317.25;4964808;27;98405;-66
2023/01/18 10:07:22;;;;;;;;;;;;;;;10.56;47.79;98318.03;4977037;27;99764;-66
2023/01/18 10:09:51;;;;;;;;;;;;;;;10.55;47.15;98311.88;4963172;27;126098;-65
2023/01/18 10:12:32;;;;;;;;;;;;;;;10.57;47.26;98314.22;4994978;27;98177;-67
2023/01/18 10:15:28;;;;;;;;;;;;;;;10.57;47.61;98308.84;4978551;27;109498;-65
2023/01/18 10:17:59;;;;;;;;;;;;;;;10.59;47.25;98306.63;4995907;27;118249;-66
2023/01/18 10:20:46;;;;;;;;;;;;;;;10.60;47.23;98310.91;4980182;27;99318;-65
2023/01/18 10:23:17;;;;;;;;;;;;;;;10.60;47.33;98305.53;4994553;27;100165;-65
2023/01/18 10:25:54;;;;;;;;;;;;;;;10.61;47.17;98307.13;4980885;27;99885;-64
2023/01/18 10:28:35;;;;;;;;;;;;;;;10.63;47.31;98309.50;4980637;27;116101;-65
2023/01/18 10:31:19;;;;;;;;;;;;;;;10.63;47.38;98317.56;4996989;27;98323;-64
2023/01/18 10:33:45;;;;;;;;;;;;;;;10.64;47.32;98319.94;4994848;27;98055;-64
2023/01/18 10:36:19;;;;;;;;;;;;;;;10.66;47.41;98319.63;4962567;27;100069;-66
2023/01/18 10:38:45;;;;;;;;;;;;;;;10.66;47.59;98320.41;4978724;27;99977;-65
2023/01/18 10:41:18;;;;;;;;;;;;;;;10.68;47.08;98317.41;4977158;27;98309;-66
2023/01/18 10:43:44;;;;;;;;;;;;;;;10.68;47.27;98320.88;4963658;27;98066;-64
2023/01/18 10:46:16;;;;;;;;;;;;;;;10.68;47.54;98320.88;4962724;27;97873;-64
2023/01/18 10:48:52;;;;;;;;;;;;;;;10.68;47.63;98323.56;4992887;27;98776;-64
2023/01/18 10:51:36;;;;;;;;;;;;;;;10.69;47.32;98329.75;4979655;27;98387;-64
2023/01/18 10:54:17;;;;;;;;;;;;;;;10.68;47.49;98331.66;4980363;27;101489;-66
2023/01/18 10:56:43;;;;;;;;;;;;;;;10.68;47.58;98333.56;5009867;27;97962;-64
2023/01/18 10:59:23;;;;;;;;;;;;;;;10.67;47.66;98332.78;4963435;27;127698;-64
2023/01/18 11:01:53;;;;;;;;;;;;;;;10.68;47.35;98339.75;4962213;27;97985;-66
2023/01/18 11:04:30;;;;;;;;;;;;;;;10.68;47.33;98342.44;4994686;27;97822;-65
2023/01/18 11:07:00;;;;;;;;;;;;;;;10.69;47.74;98343.22;4980154;27;99552;-66
2023/01/18 11:09:47;;;;;;;;;;;;;;;10.70;47.43;98340.22;4977341;27;98373;-64
2023/01/18 11:12:37;;;;;;;;;;;;;;;10.70;47.68;98348.31;4992902;27;98158;-65
2023/01/18 11:15:12;;;;;;;;;;;;;;;10.68;47.60;98352.44;4982187;27;97869;-65
2023/01/18 11:17:39;;;;;;;;;;;;;;;10.69;47.62;98352.13;4999748;27;98691;-66
2023/01/18 11:20:06;;;;;;;;;;;;;;;10.69;47.57;98354.00;4967646;27;99936;-65
2023/01/18 11:22:32;;;;;;;;;;;;;;;10.68;47.20;98352.44;4982156;27;98277;-65
2023/01/18 11:24:58;;;;;;;;;;;;;;;10.68;47.26;98357.81;4979861;27;117142;-66
2023/01/18 11:27:24;;;;;;;;;;;;;;;10.67;47.48;98369.72;4980628;27;127537;-65
2023/01/18 11:29:50;;;;;;;;;;;;;;;10.67;47.42;98367.00;4998602;27;121106;-66
2023/01/18 11:32:22;;;;;;;;;;;;;;;10.66;47.28;98368.91;4983132;27;98258;-65
2023/01/18 11:34:56;;;;;;;;;;;;;;;10.66;47.36;98363.53;4995374;27;97974;-66
2023/01/18 11:37:38;;;;;;;;;;;;;;;10.68;47.35;98371.28;4981639;27;122602;-66
2023/01/18 11:40:27;;;;;;;;;;;;;;;10.67;47.54;98367.81;4966578;27;97936;-66
2023/01/18 11:43:14;;;;;;;;;;;;;;;10.68;47.50;98368.59;4998225;27;98014;-65
2023/01/18 11:46:02;;;;;;;;;;;;;;;10.69;47.86;98372.88;4978974;27;98122;-67
2023/01/18 11:48:43;;;;;;;;;;;;;;;10.68;47.69;98366.69;4984403;27;99897;-67
2023/01/18 11:51:10;;;;;;;;;;;;;;;10.70;47.39;98375.25;4965864;27;98015;-65
2023/01/18 11:54:25;;;;;;;;;;;;;;;10.71;47.34;98365.28;4983118;27;98077;-65
2023/01/18 11:56:54;;;;;;;;;;;;;;;10.73;47.16;98371.16;4923812;27;98086;-67
2023/01/18 11:59:28;;;;;;;;;;;;;;;10.75;47.44;98377.00;4983732;27;99314;-66
2023/01/18 12:02:03;;;;;;;;;;;;;;;10.76;47.25;98375.88;4995511;27;98223;-67
2023/01/18 12:04:38;;;;;;;;;;;;;;;10.76;47.56;98378.56;5012127;27;98207;-65
2023/01/18 12:07:32;;;;;;;;;;;;;;;10.77;47.61;98390.97;4993553;27;98193;-65
2023/01/18 12:10:03;;;;;;;;;;;;;;;10.77;47.67;98396.34;4996285;27;124253;-65
2023/01/18 12:12:47;;;;;;;;;;;;;;;10.76;47.50;98397.44;4982812;27;98464;-65
2023/01/18 12:15:31;;;;;;;;;;;;;;;10.77;47.73;98404.44;4995200;27;100546;-67
2023/01/18 12:18:20;;;;;;;;;;;;;;;10.74;47.63;98400.47;4996890;27;98247;-65
2023/01/18 12:21:11;;;;;;;;;;;;;;;10.75;47.62;98415.50;4998204;27;98480;-67
2023/01/18 12:24:14;;;;;;;;;;;;;;;10.74;47.58;98416.63;4981234;27;99105;-66
2023/01/18 12:26:44;;;;;;;;;;;;;;;10.73;47.79;98422.34;4982270;27;108942;-65
2023/01/18 12:29:38;;;;;;;;;;;;;;;10.73;47.81;98425.03;4981204;27;99546;-66
2023/01/18 12:32:19;;;;;;;;;;;;;;;10.71;47.77;98419.16;4997414;27;99469;-65
2023/01/18 12:35:01;;;;;;;;;;;;;;;10.69;47.59;98430.28;4998947;27;98452;-65
2023/01/18 12:37:59;;;;;;;;;;;;;;;10.66;47.73;98428.19;4997073;27;98085;-66
2023/01/18 12:40:43;;;;;;;;;;;;;;;10.63;47.64;98434.22;4965435;27;98042;-66
2023/01/18 12:43:10;;;;;;;;;;;;;;;10.61;47.29;98449.09;4994082;27;99907;-65
2023/01/18 12:45:37;;;;;;;;;;;;;;;10.58;48.11;98450.53;4998876;27;98385;-67
2023/01/18 12:48:23;;;;;;;;;;;;;;;10.57;47.77;98459.72;4979348;27;97979;-65
2023/01/18 12:50:50;;;;;;;;;;;;;;;10.55;47.43;98453.84;4967102;27;97993;-66
2023/01/18 12:53:36;;;;;;;;;;;;;;;10.53;47.73;98458.75;4958636;27;98363;-67
2023/01/18 12:56:13;;;;;;;;;;;;;;;10.52;48.00;98468.75;4978796;27;98118;-65
2023/01/18 12:58:39;;;;;;;;;;;;;;;10.51;47.37;98466.38;4967876;27;97887;-65
2023/01/18 13:01:05;;;;;;;;;;;;;;;10.48;47.31;98469.69;4981479;27;98022;-67
2023/01/18 13:03:37;;;;;;;;;;;;;;;10.45;47.76;98484.59;4964902;27;117815;-65
2023/01/18 13:06:03;;;;;;;;;;;;;;;10.43;47.80;98484.09;4983367;27;98448;-66
2023/01/18 13:08:38;;;;;;;;;;;;;;;10.40;47.90;98498.19;4967824;27;125180;-65
2023/01/18 13:11:16;;;;;;;;;;;;;;;10.37;47.91;98493.44;4987456;27;98060;-66
2023/01/18 13:13:43;;;;;;;;;;;;;;;10.36;47.78;98496.44;4953415;27;125916;-66
2023/01/18 13:16:34;;;;;;;;;;;;;;;10.36;47.79;98499.13;4986417;27;98265;-67
2023/01/18 13:19:04;;;;;;;;;;;;;;;10.33;47.83;98505.94;4981348;27;97854;-66
2023/01/18 13:21:48;;;;;;;;;;;;;;;10.31;47.87;98508.94;4981936;27;98069;-67
2023/01/18 13:24:28;;;;;;;;;;;;;;;10.32;47.46;98512.44;5000733;27;99138;-67
2023/01/18 13:27:09;;;;;;;;;;;;;;;10.30;47.78;98517.34;5000853;27;98168;-65
2023/01/18 13:29:35;;;;;;;;;;;;;;;10.29;47.70;98526.50;4968864;27;100114;-65
2023/01/18 13:32:01;;;;;;;;;;;;;;;10.27;47.38;98528.75;4964766;27;124205;-67
2023/01/18 13:34:34;;;;;;;;;;;;;;;10.28;47.64;98533.81;4964944;27;128261;-65
2023/01/18 13:37:02;;;;;;;;;;;;;;;10.27;47.80;98540.31;4970269;27;98154;-67